sensor_id;sensor_type;location;lat;lon;timestamp;pressure;altitude;pressure_sealevel;temperature;humidity
35758;BME280;21879;50.110;18.900;2023-08-17T00:10:41;98932.80;;;24.94;55.87
35758;BME280;21879;50.110;18.900;2023-08-17T00:21:09;98938.60;;;24.95;55.60
35758;BME280;21879;50.110;18.900;2023-08-17T00:31:37;98938.59;;;24.95;55.93
35758;BME280;21879;50.110;18.900;2023-08-17T00:42:06;98953.94;;;24.92;56.43
35758;BME280;21879;50.110;18.900;2023-08-17T00:52:35;98962.63;;;24.81;56.74
35758;BME280;21879;50.110;18.900;2023-08-17T01:03:04;98974.64;;;24.74;57.07
35758;BME280;21879;50.110;18.900;2023-08-17T01:13:38;98975.79;;;24.61;56.91
35758;BME280;21879;50.110;18.900;2023-08-17T01:24:10;98988.17;;;24.51;57.58
35758;BME280;21879;50.110;18.900;2023-08-17T01:34:43;98993.71;;;24.45;57.85
35758;BME280;21879;50.110;18.900;2023-08-17T01:45:12;98990.45;;;24.45;57.84
35758;BME280;21879;50.110;18.900;2023-08-17T01:55:40;98988.62;;;24.44;58.10
35758;BME280;21879;50.110;18.900;2023-08-17T02:06:08;98985.55;;;24.38;57.84
35758;BME280;21879;50.110;18.900;2023-08-17T02:16:36;98985.38;;;24.23;57.88
35758;BME280;21879;50.110;18.900;2023-08-17T02:27:04;98986.43;;;24.09;58.04
35758;BME280;21879;50.110;18.900;2023-08-17T02:37:32;98989.35;;;23.96;58.32
35758;BME280;21879;50.110;18.900;2023-08-17T02:48:00;98992.11;;;23.88;58.73
35758;BME280;21879;50.110;18.900;2023-08-17T02:58:29;98993.61;;;23.81;59.09
35758;BME280;21879;50.110;18.900;2023-08-17T03:08:57;98987.31;;;23.76;59.21
35758;BME280;21879;50.110;18.900;2023-08-17T03:19:25;98985.08;;;23.57;59.05
35758;BME280;21879;50.110;18.900;2023-08-17T03:29:53;98980.75;;;23.33;59.64
35758;BME280;21879;50.110;18.900;2023-08-17T03:40:22;98979.32;;;23.17;60.51
35758;BME280;21879;50.110;18.900;2023-08-17T03:50:52;98975.05;;;23.15;61.15
35758;BME280;21879;50.110;18.900;2023-08-17T04:01:21;98974.86;;;23.21;61.27
35758;BME280;21879;50.110;18.900;2023-08-17T04:11:49;98967.73;;;23.28;61.38
35758;BME280;21879;50.110;18.900;2023-08-17T04:22:18;98985.84;;;23.25;61.41
35758;BME280;21879;50.110;18.900;2023-08-17T04:32:45;98999.37;;;23.21;61.48
35758;BME280;21879;50.110;18.900;2023-08-17T04:43:18;99000.83;;;23.17;61.68
35758;BME280;21879;50.110;18.900;2023-08-17T04:53:47;99014.55;;;23.16;61.75
35758;BME280;21879;50.110;18.900;2023-08-17T05:04:15;99020.61;;;23.15;62.08
35758;BME280;21879;50.110;18.900;2023-08-17T05:14:43;99033.98;;;23.20;62.66
35758;BME280;21879;50.110;18.900;2023-08-17T05:25:11;99052.92;;;23.37;62.95
35758;BME280;21879;50.110;18.900;2023-08-17T05:35:39;99057.93;;;23.55;63.02
35758;BME280;21879;50.110;18.900;2023-08-17T05:46:09;99060.25;;;23.64;62.62
35758;BME280;21879;50.110;18.900;2023-08-17T05:56:37;99054.30;;;23.69;62.74
35758;BME280;21879;50.110;18.900;2023-08-17T06:07:10;99052.02;;;23.93;63.02
35758;BME280;21879;50.110;18.900;2023-08-17T06:17:38;99050.16;;;24.24;62.46
35758;BME280;21879;50.110;18.900;2023-08-17T06:28:07;99047.80;;;24.44;61.86
35758;BME280;21879;50.110;18.900;2023-08-17T06:38:36;99055.21;;;24.32;61.70
35758;BME280;21879;50.110;18.900;2023-08-17T06:49:05;99060.95;;;24.26;62.11
35758;BME280;21879;50.110;18.900;2023-08-17T06:59:32;99065.75;;;24.26;62.38
35758;BME280;21879;50.110;18.900;2023-08-17T07:10:01;99066.26;;;24.41;62.22
35758;BME280;21879;50.110;18.900;2023-08-17T07:20:29;99063.02;;;24.57;62.29
35758;BME280;21879;50.110;18.900;2023-08-17T07:30:58;99060.73;;;24.85;62.42
35758;BME280;21879;50.110;18.900;2023-08-17T07:41:26;99049.22;;;25.43;62.33
35758;BME280;21879;50.110;18.900;2023-08-17T07:51:54;99045.61;;;26.11;61.59
35758;BME280;21879;50.110;18.900;2023-08-17T08:02:23;99050.20;;;26.89;60.66
35758;BME280;21879;50.110;18.900;2023-08-17T08:12:51;99048.77;;;27.40;59.00
35758;BME280;21879;50.110;18.900;2023-08-17T08:23:19;99039.50;;;27.87;57.69
35758;BME280;21879;50.110;18.900;2023-08-17T08:33:47;99029.21;;;28.31;56.60
35758;BME280;21879;50.110;18.900;2023-08-17T08:44:15;99024.20;;;28.66;55.50
35758;BME280;21879;50.110;18.900;2023-08-17T08:54:45;99021.62;;;28.98;54.50
35758;BME280;21879;50.110;18.900;2023-08-17T09:05:16;99011.15;;;29.11;53.30
35758;BME280;21879;50.110;18.900;2023-08-17T09:15:45;98997.61;;;29.27;52.72
35758;BME280;21879;50.110;18.900;2023-08-17T09:26:12;98986.38;;;29.40;51.34
35758;BME280;21879;50.110;18.900;2023-08-17T09:36:40;98978.39;;;29.37;50.55
35758;BME280;21879;50.110;18.900;2023-08-17T09:47:08;98964.48;;;29.34;49.86
35758;BME280;21879;50.110;18.900;2023-08-17T09:57:37;98954.60;;;29.32;49.37
35758;BME280;21879;50.110;18.900;2023-08-17T10:08:07;98952.89;;;29.40;49.53
35758;BME280;21879;50.110;18.900;2023-08-17T10:18:42;98957.70;;;29.44;48.80
35758;BME280;21879;50.110;18.900;2023-08-17T10:29:13;98947.67;;;29.38;47.93
35758;BME280;21879;50.110;18.900;2023-08-17T10:39:48;98943.85;;;29.39;47.92
35758;BME280;21879;50.110;18.900;2023-08-17T10:50:23;98953.40;;;29.42;47.27
35758;BME280;21879;50.110;18.900;2023-08-17T11:00:55;98969.33;;;29.44;47.68
35758;BME280;21879;50.110;18.900;2023-08-17T11:11:23;98983.58;;;29.32;47.38
35758;BME280;21879;50.110;18.900;2023-08-17T11:21:52;98988.25;;;29.19;47.77
35758;BME280;21879;50.110;18.900;2023-08-17T11:32:20;99001.55;;;28.96;47.92
35758;BME280;21879;50.110;18.900;2023-08-17T11:42:49;99036.59;;;28.44;49.32
35758;BME280;21879;50.110;18.900;2023-08-17T11:53:18;99061.32;;;27.77;51.93
35758;BME280;21879;50.110;18.900;2023-08-17T12:03:46;99057.85;;;27.04;54.36
35758;BME280;21879;50.110;18.900;2023-08-17T12:14:16;99036.42;;;26.31;55.16
35758;BME280;21879;50.110;18.900;2023-08-17T12:24:43;98997.67;;;25.64;56.40
35758;BME280;21879;50.110;18.900;2023-08-17T12:35:11;98990.19;;;25.45;57.81
35758;BME280;21879;50.110;18.900;2023-08-17T12:45:39;99021.21;;;25.39;58.71
35758;BME280;21879;50.110;18.900;2023-08-17T12:56:07;99044.90;;;25.39;59.00
35758;BME280;21879;50.110;18.900;2023-08-17T13:06:34;99063.74;;;25.47;58.86
35758;BME280;21879;50.110;18.900;2023-08-17T13:17:14;99064.07;;;25.59;58.94
35758;BME280;21879;50.110;18.900;2023-08-17T13:27:43;99070.11;;;25.64;59.46
35758;BME280;21879;50.110;18.900;2023-08-17T13:38:11;99051.25;;;25.50;59.88
35758;BME280;21879;50.110;18.900;2023-08-17T13:48:39;99017.26;;;25.37;60.19
35758;BME280;21879;50.110;18.900;2023-08-17T13:59:07;99009.63;;;25.49;60.43
35758;BME280;21879;50.110;18.900;2023-08-17T14:09:35;98988.65;;;25.73;60.39
35758;BME280;21879;50.110;18.900;2023-08-17T14:20:03;98960.45;;;25.58;60.15
35758;BME280;21879;50.110;18.900;2023-08-17T14:30:31;98936.77;;;25.29;60.14
35758;BME280;21879;50.110;18.900;2023-08-17T14:40:59;98923.31;;;25.36;60.11
35758;BME280;21879;50.110;18.900;2023-08-17T14:51:27;98926.34;;;25.68;59.52
35758;BME280;21879;50.110;18.900;2023-08-17T15:01:57;98935.96;;;25.94;58.75
35758;BME280;21879;50.110;18.900;2023-08-17T15:12:24;98941.64;;;26.02;57.39
35758;BME280;21879;50.110;18.900;2023-08-17T15:22:52;98939.27;;;26.01;57.33
35758;BME280;21879;50.110;18.900;2023-08-17T15:33:19;98946.10;;;25.70;57.52
35758;BME280;21879;50.110;18.900;2023-08-17T15:43:47;98938.59;;;25.42;57.61
35758;BME280;21879;50.110;18.900;2023-08-17T15:54:14;98949.95;;;25.31;57.89
35758;BME280;21879;50.110;18.900;2023-08-17T16:05:00;98950.54;;;25.31;58.10
35758;BME280;21879;50.110;18.900;2023-08-17T16:15:28;98944.21;;;25.18;57.81
35758;BME280;21879;50.110;18.900;2023-08-17T16:25:56;98943.80;;;25.05;57.45
35758;BME280;21879;50.110;18.900;2023-08-17T16:36:23;98965.35;;;25.08;58.41
35758;BME280;21879;50.110;18.900;2023-08-17T16:46:51;98963.80;;;24.88;58.23
35758;BME280;21879;50.110;18.900;2023-08-17T16:57:18;98965.84;;;24.70;58.86
35758;BME280;21879;50.110;18.900;2023-08-17T17:07:46;98968.60;;;24.48;58.80
35758;BME280;21879;50.110;18.900;2023-08-17T17:18:14;98954.56;;;24.34;59.01
35758;BME280;21879;50.110;18.900;2023-08-17T17:28:43;98945.14;;;24.30;59.79
35758;BME280;21879;50.110;18.900;2023-08-17T17:39:11;98932.36;;;24.36;60.26
35758;BME280;21879;50.110;18.900;2023-08-17T17:49:39;98916.98;;;24.37;60.39
35758;BME280;21879;50.110;18.900;2023-08-17T18:00:12;98902.35;;;24.33;60.70
35758;BME280;21879;50.110;18.900;2023-08-17T18:10:41;98896.31;;;24.18;60.64
35758;BME280;21879;50.110;18.900;2023-08-17T18:21:09;98895.02;;;23.96;60.81
35758;BME280;21879;50.110;18.900;2023-08-17T18:31:37;98897.35;;;23.87;61.32
35758;BME280;21879;50.110;18.900;2023-08-17T18:42:07;98892.52;;;23.85;61.66
35758;BME280;21879;50.110;18.900;2023-08-17T18:52:36;98886.92;;;23.72;61.97
35758;BME280;21879;50.110;18.900;2023-08-17T19:03:04;98891.88;;;23.66;62.84
35758;BME280;21879;50.110;18.900;2023-08-17T19:13:32;98897.15;;;23.67;62.51
35758;BME280;21879;50.110;18.900;2023-08-17T19:24:01;98890.14;;;23.53;62.52
35758;BME280;21879;50.110;18.900;2023-08-17T19:34:29;98891.10;;;23.49;63.10
35758;BME280;21879;50.110;18.900;2023-08-17T19:44:57;98899.55;;;23.44;63.22
35758;BME280;21879;50.110;18.900;2023-08-17T19:55:25;98917.67;;;23.35;63.33
35758;BME280;21879;50.110;18.900;2023-08-17T20:05:56;98920.96;;;23.30;63.27
35758;BME280;21879;50.110;18.900;2023-08-17T20:16:24;98944.53;;;23.06;63.37
35758;BME280;21879;50.110;18.900;2023-08-17T20:26:52;98973.20;;;22.94;64.04
35758;BME280;21879;50.110;18.900;2023-08-17T20:37:20;98974.90;;;22.79;64.05
35758;BME280;21879;50.110;18.900;2023-08-17T20:47:49;98977.76;;;22.65;64.00
35758;BME280;21879;50.110;18.900;2023-08-17T20:58:18;98980.27;;;22.42;63.91
35758;BME280;21879;50.110;18.900;2023-08-17T21:08:46;98980.69;;;22.37;63.72
35758;BME280;21879;50.110;18.900;2023-08-17T21:19:14;98971.31;;;22.31;63.42
35758;BME280;21879;50.110;18.900;2023-08-17T21:29:43;98978.81;;;22.36;63.85
35758;BME280;21879;50.110;18.900;2023-08-17T21:40:12;98983.84;;;22.55;64.00
35758;BME280;21879;50.110;18.900;2023-08-17T21:50:40;98980.46;;;22.68;64.21
35758;BME280;21879;50.110;18.900;2023-08-17T22:01:09;98977.52;;;22.63;64.12
35758;BME280;21879;50.110;18.900;2023-08-17T22:11:36;98973.39;;;22.64;63.98
35758;BME280;21879;50.110;18.900;2023-08-17T22:22:05;98965.91;;;22.65;63.97
35758;BME280;21879;50.110;18.900;2023-08-17T22:32:33;98957.95;;;22.65;64.17
35758;BME280;21879;50.110;18.900;2023-08-17T22:43:02;98957.86;;;22.57;64.09
35758;BME280;21879;50.110;18.900;2023-08-17T22:53:30;98955.16;;;22.41;63.71
35758;BME280;21879;50.110;18.900;2023-08-17T23:03:58;98950.35;;;22.38;64.34
35758;BME280;21879;50.110;18.900;2023-08-17T23:14:27;98949.49;;;22.51;64.89
35758;BME280;21879;50.110;18.900;2023-08-17T23:24:55;98935.27;;;22.51;64.45
35758;BME280;21879;50.110;18.900;2023-08-17T23:35:23;98928.06;;;22.67;64.46
35758;BME280;21879;50.110;18.900;2023-08-17T23:45:51;98932.81;;;22.70;63.89
35758;BME280;21879;50.110;18.900;2023-08-17T23:56:20;98935.40;;;22.59;63.63
